createdAt,value
2022-08-16T00:01:25.025Z,24.95
2022-08-16T00:04:00.093Z,25.02
2022-08-16T00:08:57.646Z,24.78
2022-08-16T00:11:26.814Z,24.79
2022-08-16T00:13:55.576Z,24.87
2022-08-16T00:17:00.880Z,24.82
2022-08-16T00:19:15.567Z,24.92
2022-08-16T00:21:44.755Z,25.01
2022-08-16T00:24:13.356Z,25.15
2022-08-16T00:26:59.758Z,25.24
2022-08-16T00:29:29.677Z,25.18
2022-08-16T00:32:01.103Z,25.26
2022-08-16T00:34:43.543Z,25.19
2022-08-16T00:37:16.765Z,25.17
2022-08-16T00:39:47.065Z,25.37
2022-08-16T00:42:30.518Z,25.30
2022-08-16T00:45:09.905Z,25.33
2022-08-16T00:47:49.287Z,25.33
2022-08-16T00:50:36.629Z,25.27
2022-08-16T00:53:05.466Z,25.32
2022-08-16T00:55:37.648Z,25.32
2022-08-16T00:58:13.064Z,25.35
2022-08-16T01:00:55.956Z,25.30
2022-08-16T01:03:30.506Z,25.38
2022-08-16T01:06:39.564Z,25.18
2022-08-16T01:08:53.219Z,25.06
2022-08-16T01:11:24.931Z,24.96
2022-08-16T01:13:58.996Z,24.33
2022-08-16T01:16:29.524Z,24.67
2022-08-16T01:19:02.582Z,24.40
2022-08-16T01:21:40.862Z,24.44
2022-08-16T01:24:52.964Z,24.13
2022-08-16T01:27:11.224Z,24.28
2022-08-16T01:29:56.924Z,23.96
2022-08-16T01:32:33.674Z,23.70
2022-08-16T01:35:17.021Z,23.46
2022-08-16T01:37:54.031Z,23.21
2022-08-16T01:40:30.462Z,23.34
2022-08-16T01:42:59.514Z,23.46
2022-08-16T01:45:40.637Z,23.31
2022-08-16T01:48:19.707Z,22.98
2022-08-16T01:51:09.169Z,22.91
2022-08-16T01:53:40.475Z,23.14
2022-08-16T01:56:27.588Z,23.08
2022-08-16T01:58:59.191Z,23.08
2022-08-16T02:01:31.985Z,22.97
2022-08-16T02:04:10.619Z,22.90
2022-08-16T02:06:46.958Z,23.00
2022-08-16T02:09:25.698Z,23.05
2022-08-16T02:12:51.586Z,23.07
2022-08-16T02:14:56.298Z,22.91
2022-08-16T02:17:25.914Z,22.80
2022-08-16T02:20:00.083Z,22.82
2022-08-16T02:22:34.124Z,22.84
2022-08-16T02:25:08.266Z,22.78
2022-08-16T02:27:39.958Z,22.80
2022-08-16T02:30:36.539Z,22.69
2022-08-16T02:33:04.026Z,22.84
2022-08-16T02:35:33.492Z,22.80
2022-08-16T02:38:08.811Z,22.61
2022-08-16T02:40:39.659Z,22.64
2022-08-16T02:43:13.174Z,22.58
2022-08-16T02:45:41.689Z,22.66
2022-08-16T02:48:30.562Z,22.67
2022-08-16T02:51:06.415Z,22.48
2022-08-16T02:53:43.371Z,22.82
2022-08-16T02:56:14.863Z,22.82
2022-08-16T02:58:46.042Z,22.64
2022-08-16T03:01:24.254Z,22.67
2022-08-16T03:04:41.499Z,22.53
2022-08-16T03:06:44.517Z,22.50
2022-08-16T03:09:28.719Z,22.45
2022-08-16T03:12:00.956Z,22.48
2022-08-16T03:14:33.264Z,22.45
2022-08-16T03:17:02.914Z,22.24
2022-08-16T03:19:47.075Z,22.42
2022-08-16T03:22:19.192Z,22.40
2022-08-16T03:24:57.590Z,22.16
2022-08-16T03:27:30.915Z,22.37
2022-08-16T03:30:17.565Z,22.25
2022-08-16T03:32:59.623Z,22.31
2022-08-16T03:35:35.226Z,22.38
2022-08-16T03:38:34.125Z,22.35
2022-08-16T03:41:17.099Z,22.29
2022-08-16T03:43:56.797Z,22.27
2022-08-16T03:46:44.880Z,22.51
2022-08-16T03:49:20.601Z,22.48
2022-08-16T03:51:52.855Z,22.34
2022-08-16T03:54:24.183Z,22.39
2022-08-16T03:56:58.591Z,22.40
2022-08-16T03:59:30.310Z,22.65
2022-08-16T04:02:21.963Z,22.44
2022-08-16T04:04:54.114Z,22.36
2022-08-16T04:07:25.691Z,22.43
2022-08-16T04:09:54.183Z,22.50
2022-08-16T04:12:53.599Z,22.68
2022-08-16T04:15:13.526Z,22.62
2022-08-16T04:17:55.214Z,22.67
2022-08-16T04:20:31.431Z,22.60
2022-08-16T04:23:06.242Z,22.47
2022-08-16T04:25:35.717Z,22.75
2022-08-16T04:28:52.093Z,22.58
2022-08-16T04:30:54.934Z,22.76
2022-08-16T04:33:27.073Z,22.70
2022-08-16T04:35:58.087Z,22.71
2022-08-16T04:38:27.604Z,22.79
2022-08-16T04:40:58.843Z,22.84
2022-08-16T04:43:29.413Z,22.96
2022-08-16T04:46:03.270Z,23.13
2022-08-16T04:48:39.199Z,22.79
2022-08-16T04:51:12.901Z,22.87
2022-08-16T04:54:00.561Z,22.98
2022-08-16T04:56:29.113Z,23.11
2022-08-16T04:58:58.845Z,23.18
2022-08-16T05:01:57.892Z,23.04
2022-08-16T05:04:19.810Z,23.11
2022-08-16T05:06:50.481Z,23.22
2022-08-16T05:09:28.838Z,23.26
2022-08-16T05:11:59.128Z,23.18
2022-08-16T05:14:45.665Z,23.32
2022-08-16T05:17:24.726Z,23.35
2022-08-16T05:19:58.675Z,23.29
2022-08-16T05:22:40.730Z,23.22
2022-08-16T05:25:16.622Z,23.32
2022-08-16T05:27:50.417Z,23.50
2022-08-16T05:30:34.971Z,23.53
2022-08-16T05:33:18.309Z,23.48
2022-08-16T05:35:55.450Z,23.53
2022-08-16T05:38:48.621Z,23.69
2022-08-16T05:41:17.165Z,23.64
2022-08-16T05:43:48.116Z,23.81
2022-08-16T05:46:34.018Z,23.65
2022-08-16T05:49:16.600Z,23.84
2022-08-16T05:51:53.108Z,23.89
2022-08-16T05:54:25.226Z,23.89
2022-08-16T05:56:57.604Z,23.99
2022-08-16T05:59:28.221Z,24.07
2022-08-16T06:01:58.264Z,24.18
2022-08-16T06:04:37.442Z,24.30
2022-08-16T06:07:26.230Z,24.57
2022-08-16T06:10:07.242Z,24.40
2022-08-16T06:12:38.424Z,24.40
2022-08-16T06:15:11.533Z,24.33
2022-08-16T06:17:44.574Z,24.46
2022-08-16T06:20:35.056Z,24.40
2022-08-16T06:23:17.511Z,24.56
2022-08-16T06:26:07.639Z,24.34
2022-08-16T06:28:41.851Z,24.58
2022-08-16T06:31:18.352Z,24.65
2022-08-16T06:33:53.352Z,24.71
2022-08-16T06:36:24.232Z,24.53
2022-08-16T06:39:20.165Z,24.63
2022-08-16T06:41:58.382Z,24.74
2022-08-16T06:44:45.102Z,24.84
2022-08-16T06:47:52.462Z,24.71
2022-08-16T06:50:29.582Z,24.88
2022-08-16T06:53:09.057Z,25.05
2022-08-16T06:55:48.078Z,25.09
2022-08-16T06:58:31.782Z,25.25
2022-08-16T07:01:14.689Z,25.25
2022-08-16T07:03:55.807Z,25.13
2022-08-16T07:06:28.230Z,25.10
2022-08-16T07:09:01.356Z,25.15
2022-08-16T07:11:45.618Z,25.17
2022-08-16T07:14:26.651Z,24.96
2022-08-16T07:16:58.983Z,25.12
2022-08-16T07:20:01.816Z,25.31
2022-08-16T07:22:36.661Z,25.23
2022-08-16T07:25:15.961Z,25.27
2022-08-16T07:27:49.643Z,25.42
2022-08-16T07:30:39.420Z,25.21
2022-08-16T07:33:15.850Z,25.32
2022-08-16T07:35:49.518Z,25.53
2022-08-16T07:38:20.371Z,25.45
2022-08-16T07:41:10.245Z,25.46
2022-08-16T07:43:46.118Z,25.70
2022-08-16T07:46:37.541Z,25.87
2022-08-16T07:49:18.205Z,25.62
2022-08-16T07:51:47.192Z,25.78
2022-08-16T07:54:20.771Z,25.64
2022-08-16T07:56:54.153Z,25.78
2022-08-16T07:59:26.164Z,25.83
2022-08-16T08:02:12.210Z,25.91
2022-08-16T08:04:41.663Z,25.77
2022-08-16T08:07:12.317Z,25.95
2022-08-16T08:09:43.262Z,25.86
2022-08-16T08:12:32.126Z,25.90
2022-08-16T08:15:02.255Z,25.99
2022-08-16T08:17:42.978Z,26.14
2022-08-16T08:20:28.789Z,26.16
2022-08-16T08:23:01.559Z,26.21
2022-08-16T08:25:55.123Z,26.22
2022-08-16T08:28:27.460Z,26.55
2022-08-16T08:31:09.208Z,26.64
2022-08-16T08:33:47.306Z,26.61
2022-08-16T08:36:32.951Z,26.60
2022-08-16T08:39:13.215Z,26.52
2022-08-16T08:41:43.756Z,26.29
2022-08-16T08:44:28.612Z,26.59
2022-08-16T08:47:07.884Z,26.64
2022-08-16T08:49:46.031Z,26.72
2022-08-16T08:52:34.890Z,26.54
2022-08-16T08:55:12.736Z,26.38
2022-08-16T08:57:45.246Z,26.33
2022-08-16T09:00:34.663Z,26.61
2022-08-16T09:03:21.651Z,26.81
2022-08-16T09:05:51.865Z,26.89
2022-08-16T09:08:22.508Z,27.01
2022-08-16T09:11:03.132Z,26.84
2022-08-16T09:13:34.180Z,27.12
2022-08-16T09:16:04.432Z,27.03
2022-08-16T09:18:35.640Z,27.02
2022-08-16T09:21:09.353Z,27.21
2022-08-16T09:23:38.433Z,27.01
2022-08-16T09:26:44.398Z,27.17
2022-08-16T09:29:15.639Z,27.25
2022-08-16T09:31:53.364Z,27.24
2022-08-16T09:34:23.539Z,27.67
2022-08-16T09:36:54.550Z,27.39
2022-08-16T09:39:23.152Z,27.51
2022-08-16T09:41:54.353Z,27.66
2022-08-16T09:45:09.100Z,27.50
2022-08-16T09:47:13.220Z,27.83
2022-08-16T09:49:42.823Z,27.61
2022-08-16T09:52:19.418Z,27.68
2022-08-16T09:54:50.738Z,27.55
2022-08-16T09:57:20.052Z,27.93
2022-08-16T09:59:56.267Z,28.11
2022-08-16T10:02:27.732Z,28.01
2022-08-16T10:05:01.970Z,28.13
2022-08-16T10:07:44.122Z,28.37
2022-08-16T10:10:30.792Z,28.68
2022-08-16T10:13:16.390Z,28.64
2022-08-16T10:15:54.994Z,28.36
2022-08-16T10:18:54.032Z,28.65
2022-08-16T10:21:17.075Z,28.89
2022-08-16T10:23:48.667Z,28.76
2022-08-16T10:27:20.420Z,28.57
2022-08-16T10:29:06.806Z,28.78
2022-08-16T10:31:44.294Z,28.83
2022-08-16T10:34:31.331Z,29.06
2022-08-16T10:37:02.736Z,29.30
2022-08-16T10:39:41.412Z,29.51
2022-08-16T10:42:10.654Z,29.27
2022-08-16T10:44:42.401Z,29.54
2022-08-16T10:47:11.671Z,29.45
2022-08-16T10:49:40.279Z,29.43
2022-08-16T10:52:18.829Z,29.63
2022-08-16T10:54:59.181Z,29.66
2022-08-16T10:57:33.064Z,29.82
2022-08-16T11:00:04.511Z,29.56
2022-08-16T11:02:58.248Z,29.31
2022-08-16T11:05:21.571Z,29.54
2022-08-16T11:07:53.480Z,29.52
2022-08-16T11:19:05.438Z,30.21
2022-08-16T11:22:11.156Z,29.58
2022-08-16T11:24:42.711Z,29.69
2022-08-16T11:27:19.742Z,30.02
2022-08-16T11:29:52.227Z,30.20
2022-08-16T11:32:22.765Z,30.62
2022-08-16T11:35:10.543Z,30.37
2022-08-16T11:40:38.959Z,30.49
2022-08-16T11:43:13.060Z,30.35
2022-08-16T11:45:54.154Z,30.83
2022-08-16T11:48:24.644Z,30.73
2022-08-16T11:50:53.009Z,30.48
2022-08-16T11:53:22.111Z,30.46
2022-08-16T11:55:54.871Z,31.06
2022-08-16T11:58:24.587Z,30.86
2022-08-16T12:00:55.009Z,30.88
2022-08-16T12:03:34.211Z,30.59
2022-08-16T12:06:10.842Z,30.69
2022-08-16T12:08:53.332Z,31.17
2022-08-16T12:11:27.029Z,31.00
2022-08-16T12:13:59.853Z,31.13
2022-08-16T12:16:31.013Z,31.51
2022-08-16T12:19:02.731Z,31.60
2022-08-16T12:21:57.624Z,31.71
2022-08-16T12:24:21.182Z,31.83
2022-08-16T12:26:50.764Z,32.29
2022-08-16T12:29:23.066Z,31.74
2022-08-16T12:32:26.620Z,31.79
2022-08-16T12:34:50.748Z,32.18
2022-08-16T12:37:24.284Z,32.55
2022-08-16T12:39:56.167Z,32.30
2022-08-16T12:42:34.471Z,32.64
2022-08-16T12:45:05.000Z,33.02
2022-08-16T12:47:50.418Z,32.79
2022-08-16T12:50:20.240Z,32.74
2022-08-16T12:52:53.324Z,33.16
2022-08-16T12:55:23.895Z,33.36
2022-08-16T12:58:04.033Z,32.99
2022-08-16T13:00:43.554Z,33.13
2022-08-16T13:03:12.873Z,32.99
2022-08-16T13:05:47.723Z,32.69
2022-08-16T13:08:27.437Z,32.80
2022-08-16T13:10:59.480Z,33.32
2022-08-16T13:13:29.761Z,33.23
2022-08-16T13:16:03.626Z,33.58
2022-08-16T13:18:35.605Z,33.66
2022-08-16T13:21:04.905Z,33.55
2022-08-16T13:23:34.050Z,33.84
2022-08-16T13:26:05.153Z,33.85
2022-08-16T13:28:37.515Z,34.04
2022-08-16T13:31:08.021Z,34.09
2022-08-16T13:33:37.848Z,33.89
2022-08-16T13:36:17.119Z,33.54
2022-08-16T13:38:57.578Z,33.60
2022-08-16T13:41:30.346Z,33.31
2022-08-16T13:44:01.244Z,33.83
2022-08-16T13:46:33.342Z,33.83
2022-08-16T13:49:02.150Z,33.05
2022-08-16T13:51:31.144Z,33.77
2022-08-16T13:54:03.957Z,34.11
2022-08-16T13:56:38.660Z,34.51
2022-08-16T13:59:13.959Z,33.59
2022-08-16T14:01:55.026Z,34.12
2022-08-16T14:04:26.231Z,33.92
2022-08-16T14:06:56.283Z,33.73
2022-08-16T14:09:25.116Z,33.86
2022-08-16T14:11:55.942Z,33.97
2022-08-16T14:14:29.233Z,34.23
2022-08-16T14:16:59.007Z,33.66
2022-08-16T14:19:29.587Z,34.33
2022-08-16T14:22:13.970Z,34.04
2022-08-16T14:24:45.314Z,33.62
2022-08-16T14:27:17.951Z,34.51
2022-08-16T14:29:49.419Z,34.99
2022-08-16T14:32:27.074Z,34.86
2022-08-16T14:35:03.283Z,33.64
2022-08-16T14:37:32.627Z,33.08
2022-08-16T14:40:01.241Z,33.64
2022-08-16T14:42:32.316Z,34.14
2022-08-16T14:45:02.175Z,34.23
2022-08-16T14:47:31.591Z,33.14
2022-08-16T14:50:05.823Z,33.40
2022-08-16T14:55:23.274Z,33.07
2022-08-16T14:57:54.433Z,33.66
2022-08-16T15:00:33.842Z,33.61
2022-08-16T15:03:06.976Z,33.62
2022-08-16T15:05:38.641Z,33.82
2022-08-16T15:08:07.544Z,34.12
2022-08-16T15:10:37.283Z,33.97
2022-08-16T15:13:09.511Z,33.65
2022-08-16T15:15:39.878Z,33.58
2022-08-16T15:18:12.291Z,33.31
2022-08-16T15:20:41.370Z,33.61
2022-08-16T15:23:10.358Z,33.45
2022-08-16T15:25:41.460Z,34.11
2022-08-16T15:28:30.792Z,34.08
2022-08-16T15:33:33.320Z,34.21
2022-08-16T15:36:05.746Z,34.59
2022-08-16T15:39:02.254Z,34.58
2022-08-16T15:41:58.321Z,33.91
2022-08-16T15:44:42.707Z,34.64
2022-08-16T15:47:25.816Z,35.14
2022-08-16T15:49:55.652Z,34.49
2022-08-16T15:52:30.409Z,35.19
2022-08-16T15:55:00.376Z,35.48
2022-08-16T15:57:41.294Z,35.74
2022-08-16T16:00:14.984Z,35.90
2022-08-16T16:02:46.998Z,35.09
2022-08-16T16:05:19.635Z,34.49
2022-08-16T16:07:56.857Z,35.14
2022-08-16T16:10:37.450Z,36.26
2022-08-16T16:13:10.779Z,34.91
2022-08-16T16:15:40.659Z,34.77
2022-08-16T16:18:12.104Z,34.14
2022-08-16T16:20:43.801Z,34.44
2022-08-16T16:23:12.499Z,34.01
2022-08-16T16:25:44.011Z,34.42
2022-08-16T16:29:06.733Z,34.50
2022-08-16T16:31:04.867Z,34.67
2022-08-16T16:33:41.089Z,33.98
2022-08-16T16:36:14.795Z,34.58
2022-08-16T16:38:46.343Z,33.65
2022-08-16T16:41:16.546Z,33.56
2022-08-16T16:43:45.909Z,33.39
2022-08-16T16:46:41.091Z,34.00
2022-08-16T16:49:08.834Z,34.87
2022-08-16T16:51:47.100Z,34.51
2022-08-16T16:54:28.005Z,33.93
2022-08-16T16:56:57.816Z,33.22
2022-08-16T16:59:28.491Z,33.45
2022-08-16T17:02:38.504Z,33.12
2022-08-16T17:04:47.791Z,33.25
2022-08-16T17:07:16.840Z,33.12
2022-08-16T17:09:45.782Z,32.55
2022-08-16T17:12:24.528Z,32.56
2022-08-16T17:14:54.032Z,32.24
2022-08-16T17:17:22.658Z,32.01
2022-08-16T17:19:54.180Z,31.59
2022-08-16T17:22:23.849Z,31.49
2022-08-16T17:25:01.814Z,31.41
2022-08-16T17:27:33.176Z,31.08
2022-08-16T17:30:15.606Z,30.92
2022-08-16T17:32:50.702Z,30.89
2022-08-16T17:35:34.267Z,30.82
2022-08-16T17:38:06.311Z,31.15
2022-08-16T17:40:47.399Z,30.78
2022-08-16T17:43:25.878Z,30.50
2022-08-16T17:45:55.916Z,30.48
2022-08-16T17:48:24.118Z,30.42
2022-08-16T17:50:54.716Z,30.45
2022-08-16T17:53:23.497Z,30.43
2022-08-16T17:55:52.486Z,30.22
2022-08-16T17:58:23.459Z,30.06
2022-08-16T18:00:55.027Z,30.07
2022-08-16T18:04:02.193Z,30.03
2022-08-16T18:06:16.816Z,30.03
2022-08-16T18:08:48.310Z,30.01
2022-08-16T18:11:18.298Z,29.81
2022-08-16T18:13:46.923Z,29.96
2022-08-16T18:16:17.252Z,29.82
2022-08-16T18:18:46.142Z,29.69
2022-08-16T18:21:33.959Z,29.82
2022-08-16T18:24:02.226Z,29.85
2022-08-16T18:26:30.760Z,29.76
2022-08-16T18:28:58.897Z,29.70
2022-08-16T18:31:27.236Z,29.68
2022-08-16T18:33:55.625Z,29.61
2022-08-16T18:36:28.500Z,29.74
2022-08-16T18:38:56.708Z,29.53
2022-08-16T18:41:26.374Z,29.45
2022-08-16T18:44:25.485Z,29.49
2022-08-16T18:46:44.545Z,29.55
2022-08-16T18:49:13.123Z,29.35
2022-08-16T18:51:45.932Z,29.49
2022-08-16T18:54:16.384Z,29.41
2022-08-16T18:56:56.073Z,29.24
2022-08-16T18:59:28.094Z,29.33
2022-08-16T19:01:59.994Z,29.18
2022-08-16T19:04:56.754Z,29.15
2022-08-16T19:07:30.443Z,29.02
2022-08-16T19:10:00.480Z,29.01
2022-08-16T19:12:37.714Z,28.93
2022-08-16T19:15:13.417Z,28.72
2022-08-16T19:17:43.269Z,28.72
2022-08-16T19:20:13.130Z,28.61
2022-08-16T19:25:46.712Z,28.57
2022-08-16T19:28:49.597Z,28.58
2022-08-16T19:31:12.788Z,28.15
2022-08-16T19:33:53.270Z,27.91
2022-08-16T19:36:31.020Z,28.16
2022-08-16T19:39:04.521Z,28.17
2022-08-16T19:41:35.426Z,28.00
2022-08-16T19:44:04.268Z,27.89
2022-08-16T19:46:32.698Z,27.95
2022-08-16T19:49:01.570Z,27.81
2022-08-16T19:51:31.221Z,27.63
2022-08-16T19:53:59.863Z,27.87
2022-08-16T19:56:29.759Z,27.88
2022-08-16T20:01:49.639Z,27.80
2022-08-16T20:04:18.944Z,27.56
2022-08-16T20:06:47.562Z,27.56
2022-08-16T20:09:16.455Z,27.45
2022-08-16T20:11:47.094Z,27.45
2022-08-16T20:14:24.345Z,27.39
2022-08-16T20:16:56.709Z,27.36
2022-08-16T20:19:25.635Z,27.28
2022-08-16T20:21:56.712Z,27.42
2022-08-16T20:24:35.222Z,27.32
2022-08-16T20:27:07.486Z,27.29
2022-08-16T20:29:35.888Z,27.06
2022-08-16T20:32:05.761Z,27.09
2022-08-16T20:34:34.370Z,27.29
2022-08-16T20:37:02.658Z,27.06
2022-08-16T20:39:30.942Z,27.05
2022-08-16T20:41:59.394Z,27.03
2022-08-16T20:44:29.118Z,27.09
2022-08-16T20:46:57.272Z,27.25
2022-08-16T20:49:25.453Z,27.10
2022-08-16T20:51:57.394Z,26.89
2022-08-16T20:54:28.118Z,26.99
2022-08-16T20:56:56.840Z,26.92
2022-08-16T20:59:25.485Z,26.83
2022-08-16T21:01:55.534Z,26.80
2022-08-16T21:04:27.432Z,26.79
2022-08-16T21:06:58.429Z,26.88
2022-08-16T21:09:28.937Z,26.72
2022-08-16T21:12:01.653Z,26.69
2022-08-16T21:14:34.247Z,26.66
2022-08-16T21:17:08.500Z,26.59
2022-08-16T21:19:37.166Z,26.76
2022-08-16T21:22:16.462Z,26.69
2022-08-16T21:24:46.313Z,26.54
2022-08-16T21:27:15.238Z,26.66
2022-08-16T21:29:46.331Z,26.67
2022-08-16T21:32:20.118Z,26.53
2022-08-16T21:35:08.025Z,26.50
2022-08-16T21:37:36.289Z,26.62
2022-08-16T21:40:06.452Z,26.46
2022-08-16T21:42:36.538Z,26.24
2022-08-16T21:45:08.105Z,26.30
2022-08-16T21:47:37.837Z,26.42
2022-08-16T21:50:08.934Z,26.32
2022-08-16T21:52:40.794Z,26.48
2022-08-16T21:55:10.198Z,26.37
2022-08-16T21:57:38.976Z,26.32
2022-08-16T22:00:12.807Z,26.22
2022-08-16T22:02:50.555Z,26.32
2022-08-16T22:05:19.400Z,26.29
2022-08-16T22:07:47.713Z,26.14
2022-08-16T22:11:07.253Z,26.18
2022-08-16T22:13:06.001Z,26.25
2022-08-16T22:15:34.228Z,26.39
2022-08-16T22:18:04.155Z,26.45
2022-08-16T22:20:32.388Z,26.35
2022-08-16T22:23:06.702Z,26.22
2022-08-16T22:25:38.360Z,26.23
2022-08-16T22:28:06.935Z,26.29
2022-08-16T22:30:35.156Z,26.39
2022-08-16T22:33:09.045Z,26.15
2022-08-16T22:35:42.716Z,26.27
2022-08-16T22:38:56.048Z,26.45
2022-08-16T22:41:04.369Z,26.03
2022-08-16T22:43:32.821Z,26.19
2022-08-16T22:46:01.184Z,26.06
2022-08-16T22:48:30.857Z,26.06
2022-08-16T22:51:08.016Z,25.84
2022-08-16T22:53:37.423Z,25.79
2022-08-16T22:56:06.315Z,25.96
2022-08-16T22:58:37.133Z,25.93
2022-08-16T23:01:13.039Z,25.91
2022-08-16T23:03:42.973Z,25.77
2022-08-16T23:06:13.024Z,25.77
2022-08-16T23:08:43.090Z,25.83
2022-08-16T23:11:13.199Z,25.79
2022-08-16T23:13:52.546Z,25.77
2022-08-16T23:16:23.398Z,25.66
2022-08-16T23:19:01.583Z,25.78
2022-08-16T23:21:29.970Z,25.80
2022-08-16T23:23:58.400Z,25.61
2022-08-16T23:26:44.673Z,25.72
2022-08-16T23:29:22.475Z,25.76
2022-08-16T23:31:54.335Z,25.94
2022-08-16T23:34:23.892Z,25.81
2022-08-16T23:36:52.156Z,25.75
2022-08-16T23:39:20.559Z,25.60
2022-08-16T23:41:48.792Z,25.72
2022-08-16T23:44:56.089Z,25.61
2022-08-16T23:47:06.500Z,25.57
2022-08-16T23:50:01.529Z,25.56
2022-08-16T23:52:53.370Z,25.50
2022-08-16T23:55:13.043Z,25.71
2022-08-16T23:57:41.218Z,25.59
